createdAt,value
2023-05-20T00:01:33.922Z,38.20
2023-05-20T00:04:01.042Z,35.00
2023-05-20T00:06:29.232Z,36.97
2023-05-20T00:09:01.315Z,32.08
2023-05-20T00:11:28.292Z,36.97
2023-05-20T00:13:57.641Z,32.38
2023-05-20T00:16:26.699Z,35.83
2023-05-20T00:18:53.806Z,33.67
2023-05-20T00:21:25.739Z,33.53
2023-05-20T00:23:56.353Z,34.55
2023-05-20T00:26:32.431Z,33.45
2023-05-20T00:28:59.219Z,33.13
2023-05-20T00:31:29.186Z,34.90
2023-05-20T00:33:58.496Z,31.05
2023-05-20T00:36:29.967Z,31.98
2023-05-20T00:38:56.976Z,32.90
2023-05-20T00:41:26.927Z,34.13
2023-05-20T00:43:55.115Z,33.25
2023-05-20T00:46:35.633Z,33.20
2023-05-20T00:49:02.944Z,34.92
2023-05-20T00:51:33.677Z,33.00
2023-05-20T00:54:01.568Z,33.90
2023-05-20T00:56:30.824Z,39.15
2023-05-20T00:59:07.689Z,34.72
2023-05-20T01:01:41.031Z,31.92
2023-05-20T01:04:07.941Z,30.38
2023-05-20T01:06:35.023Z,32.00
2023-05-20T01:09:01.899Z,31.63
2023-05-20T01:11:37.131Z,32.42
2023-05-20T01:14:07.889Z,34.28
2023-05-20T01:16:36.248Z,34.80
2023-05-20T01:19:06.896Z,31.55
2023-05-20T01:21:35.897Z,31.02
2023-05-20T01:24:05.867Z,32.47
2023-05-20T01:26:38.423Z,30.77
2023-05-20T01:29:05.544Z,35.05
2023-05-20T01:31:37.510Z,31.00
2023-05-20T01:34:05.751Z,35.88
2023-05-20T01:36:33.882Z,29.02
2023-05-20T01:39:03.066Z,33.20
2023-05-20T01:41:31.188Z,37.10
2023-05-20T01:43:58.112Z,33.97
2023-05-20T01:46:26.803Z,30.98
2023-05-20T01:48:56.442Z,35.78
2023-05-20T01:51:23.454Z,36.15
2023-05-20T01:53:50.609Z,36.78
2023-05-20T01:56:17.485Z,39.10
2023-05-20T01:58:44.592Z,39.63
2023-05-20T02:01:11.422Z,33.50
2023-05-20T02:03:38.330Z,36.40
2023-05-20T02:06:05.253Z,36.28
2023-05-20T02:08:32.262Z,38.03
2023-05-20T02:11:01.445Z,36.50
2023-05-20T02:13:28.350Z,36.83
2023-05-20T02:15:58.097Z,40.30
2023-05-20T02:18:26.562Z,41.50
2023-05-20T02:21:04.716Z,39.22
2023-05-20T02:23:32.020Z,40.45
2023-05-20T02:26:06.235Z,39.83
2023-05-20T02:28:33.609Z,40.40
2023-05-20T02:31:00.544Z,39.67
2023-05-20T02:33:29.169Z,42.83
2023-05-20T02:35:56.290Z,40.97
2023-05-20T02:38:23.236Z,46.03
2023-05-20T02:40:55.978Z,40.33
2023-05-20T02:43:22.937Z,44.42
2023-05-20T02:45:49.844Z,41.67
2023-05-20T02:48:16.864Z,45.35
2023-05-20T02:50:44.703Z,44.75
2023-05-20T02:53:15.765Z,46.72
2023-05-20T02:55:42.588Z,47.78
2023-05-20T02:58:09.473Z,47.28
2023-05-20T03:00:40.915Z,49.75
2023-05-20T03:03:08.732Z,44.70
2023-05-20T03:05:38.017Z,48.67
2023-05-20T03:08:11.152Z,49.13
2023-05-20T03:10:39.138Z,47.88
2023-05-20T03:13:09.119Z,49.95
2023-05-20T03:15:36.894Z,49.72
2023-05-20T03:18:04.623Z,46.25
2023-05-20T03:20:32.835Z,45.03
2023-05-20T03:22:59.751Z,48.97
2023-05-20T03:25:27.895Z,46.85
2023-05-20T03:27:55.077Z,47.65
2023-05-20T03:30:22.412Z,51.55
2023-05-20T03:32:51.881Z,52.40
2023-05-20T03:35:18.990Z,47.75
2023-05-20T03:37:46.106Z,50.35
2023-05-20T03:40:15.953Z,54.83
2023-05-20T03:42:45.124Z,44.83
2023-05-20T03:45:14.408Z,49.45
2023-05-20T03:47:42.218Z,49.63
2023-05-20T03:50:16.695Z,52.08
2023-05-20T03:52:45.255Z,45.35
2023-05-20T03:55:21.455Z,51.92
2023-05-20T03:57:48.516Z,47.40
2023-05-20T04:00:16.899Z,46.33
2023-05-20T04:02:43.961Z,50.13
2023-05-20T04:05:17.158Z,46.80
2023-05-20T04:07:44.113Z,43.63
2023-05-20T04:10:15.941Z,45.00
2023-05-20T04:12:45.004Z,45.60
2023-05-20T04:15:12.915Z,44.08
2023-05-20T04:17:40.608Z,47.45
2023-05-20T04:20:08.382Z,43.22
2023-05-20T04:22:35.366Z,47.85
2023-05-20T04:25:08.108Z,43.30
2023-05-20T04:27:35.085Z,45.78
2023-05-20T04:30:02.693Z,42.17
2023-05-20T04:32:34.488Z,39.42
2023-05-20T04:35:07.760Z,38.65
2023-05-20T04:37:37.532Z,40.25
2023-05-20T04:40:10.373Z,40.13
2023-05-20T04:42:37.946Z,38.08
2023-05-20T04:45:05.954Z,35.10
2023-05-20T04:47:39.240Z,38.97
2023-05-20T04:50:10.766Z,33.08
2023-05-20T04:52:46.217Z,34.30
2023-05-20T04:55:15.884Z,34.20
2023-05-20T04:57:43.609Z,30.48
2023-05-20T05:00:12.701Z,33.25
2023-05-20T05:02:40.335Z,32.15
2023-05-20T05:05:10.224Z,32.67
2023-05-20T05:07:39.452Z,32.42
2023-05-20T05:10:09.315Z,29.63
2023-05-20T05:12:36.186Z,29.08
2023-05-20T05:15:03.285Z,30.95
2023-05-20T05:17:30.363Z,30.38
2023-05-20T05:19:57.370Z,28.27
2023-05-20T05:22:34.511Z,30.45
2023-05-20T05:25:03.580Z,32.15
2023-05-20T05:27:32.810Z,31.30
2023-05-20T05:29:59.774Z,27.42
2023-05-20T05:32:28.177Z,31.65
2023-05-20T05:34:55.198Z,28.70
2023-05-20T05:37:22.437Z,29.45
2023-05-20T05:39:49.582Z,29.25
2023-05-20T05:42:17.305Z,31.33
2023-05-20T05:44:44.698Z,30.60
2023-05-20T05:47:11.717Z,28.77
2023-05-20T05:49:38.587Z,30.30
2023-05-20T05:52:05.772Z,30.05
2023-05-20T05:54:32.696Z,29.65
2023-05-20T05:57:00.813Z,31.65
2023-05-20T05:59:27.607Z,31.17
2023-05-20T06:01:54.510Z,30.00
2023-05-20T06:04:23.510Z,30.13
2023-05-20T06:06:50.434Z,28.83
2023-05-20T06:09:17.762Z,30.95
2023-05-20T06:11:44.729Z,32.13
2023-05-20T06:14:11.592Z,30.02
2023-05-20T06:16:39.612Z,31.52
2023-05-20T06:19:07.581Z,30.63
2023-05-20T06:21:37.553Z,31.63
2023-05-20T06:24:08.269Z,28.08
2023-05-20T06:26:40.729Z,31.85
2023-05-20T06:29:07.721Z,32.63
2023-05-20T06:31:34.713Z,30.27
2023-05-20T06:34:04.158Z,32.92
2023-05-20T06:36:33.049Z,35.77
2023-05-20T06:39:01.759Z,33.72
2023-05-20T06:41:28.678Z,32.03
2023-05-20T06:43:55.586Z,30.23
2023-05-20T06:46:22.409Z,31.58
2023-05-20T06:48:49.294Z,31.70
2023-05-20T06:51:16.391Z,34.92
2023-05-20T06:53:44.535Z,33.92
2023-05-20T06:56:11.298Z,34.35
2023-05-20T06:58:38.013Z,34.33
2023-05-20T07:01:04.879Z,32.55
2023-05-20T07:03:31.880Z,37.65
2023-05-20T07:05:58.978Z,35.63
2023-05-20T07:08:26.054Z,38.08
2023-05-20T07:10:55.282Z,37.72
2023-05-20T07:13:24.214Z,35.65
2023-05-20T07:15:51.013Z,36.15
2023-05-20T07:18:17.825Z,33.70
2023-05-20T07:20:45.451Z,34.60
2023-05-20T07:23:13.325Z,36.25
2023-05-20T07:25:44.576Z,39.08
2023-05-20T07:28:11.424Z,33.30
2023-05-20T07:30:38.313Z,33.85
2023-05-20T07:33:05.166Z,34.28
2023-05-20T07:35:33.043Z,34.17
2023-05-20T07:38:02.619Z,36.75
2023-05-20T07:40:40.553Z,32.67
2023-05-20T07:43:08.794Z,32.80
2023-05-20T07:45:37.151Z,37.50
2023-05-20T07:48:05.598Z,36.33
2023-05-20T07:50:34.679Z,32.95
2023-05-20T07:53:01.785Z,33.75
2023-05-20T07:55:28.659Z,34.08
2023-05-20T07:57:58.706Z,33.38
2023-05-20T08:00:29.907Z,33.03
2023-05-20T08:02:56.853Z,37.08
2023-05-20T08:05:24.126Z,31.75
2023-05-20T08:07:51.341Z,38.00
2023-05-20T08:10:18.723Z,35.95
2023-05-20T08:12:47.284Z,34.20
2023-05-20T08:15:14.480Z,38.08
2023-05-20T08:17:44.456Z,37.05
2023-05-20T08:20:12.848Z,34.88
2023-05-20T08:22:39.817Z,38.33
2023-05-20T08:25:16.144Z,34.90
2023-05-20T08:27:43.038Z,34.25
2023-05-20T08:30:12.879Z,39.38
2023-05-20T08:32:39.715Z,32.75
2023-05-20T08:35:09.347Z,34.60
2023-05-20T08:37:36.344Z,35.00
2023-05-20T08:40:05.380Z,33.17
2023-05-20T08:42:35.669Z,35.75
2023-05-20T08:47:29.835Z,39.80
2023-05-20T08:49:56.626Z,34.80
2023-05-20T08:52:24.497Z,34.65
2023-05-20T08:54:52.298Z,31.05
2023-05-20T08:57:21.594Z,29.40
2023-05-20T08:59:48.605Z,31.80
2023-05-20T09:02:15.757Z,32.42
2023-05-20T09:04:43.110Z,30.73
2023-05-20T09:07:10.091Z,31.77
2023-05-20T09:09:36.961Z,35.30
2023-05-20T09:12:04.116Z,33.03
2023-05-20T09:14:31.962Z,30.13
2023-05-20T09:16:59.336Z,31.27
2023-05-20T09:19:26.654Z,34.45
2023-05-20T09:21:55.265Z,32.00
2023-05-20T09:24:26.298Z,31.23
2023-05-20T09:26:53.402Z,34.63
2023-05-20T09:29:22.083Z,31.23
2023-05-20T09:31:50.228Z,33.05
2023-05-20T09:34:18.017Z,30.67
2023-05-20T09:36:45.369Z,31.13
2023-05-20T09:39:17.446Z,30.70
2023-05-20T09:42:01.439Z,34.40
2023-05-20T09:44:33.755Z,31.83
2023-05-20T09:47:01.546Z,31.40
2023-05-20T09:49:29.858Z,31.17
2023-05-20T09:51:58.142Z,30.30
2023-05-20T09:54:26.228Z,29.88
2023-05-20T09:56:54.725Z,31.35
2023-05-20T09:59:22.384Z,29.45
2023-05-20T10:01:49.415Z,33.42
2023-05-20T10:04:18.384Z,30.67
2023-05-20T10:07:00.666Z,33.78
2023-05-20T10:10:22.434Z,30.70
2023-05-20T10:13:07.217Z,33.70
2023-05-20T10:15:54.530Z,30.58
2023-05-20T10:18:33.630Z,29.48
2023-05-20T10:21:02.429Z,28.58
2023-05-20T10:23:30.717Z,27.15
2023-05-20T10:25:58.729Z,27.38
2023-05-20T10:28:30.562Z,26.52
2023-05-20T10:30:58.812Z,30.20
2023-05-20T10:33:28.026Z,24.88
2023-05-20T10:35:59.007Z,28.83
2023-05-20T10:38:26.271Z,26.40
2023-05-20T10:40:57.160Z,28.88
2023-05-20T10:43:28.923Z,29.67
2023-05-20T10:45:57.517Z,26.58
2023-05-20T10:48:30.912Z,25.10
2023-05-20T10:51:00.135Z,27.92
2023-05-20T10:53:38.428Z,27.27
2023-05-20T10:56:06.304Z,27.95
2023-05-20T10:58:41.660Z,25.83
2023-05-20T11:01:10.751Z,26.35
2023-05-20T11:03:40.252Z,28.37
2023-05-20T11:06:18.554Z,26.13
2023-05-20T11:08:46.458Z,27.40
2023-05-20T11:11:14.959Z,22.13
2023-05-20T11:13:42.105Z,24.95
2023-05-20T11:16:14.731Z,22.75
2023-05-20T11:18:41.604Z,24.90
2023-05-20T11:21:09.878Z,24.10
2023-05-20T11:23:39.215Z,29.27
2023-05-20T11:26:07.969Z,23.00
2023-05-20T11:28:36.134Z,24.55
2023-05-20T11:31:03.174Z,24.88
2023-05-20T11:33:30.726Z,28.80
2023-05-20T11:35:58.052Z,24.05
2023-05-20T11:38:25.821Z,24.20
2023-05-20T11:40:54.610Z,24.80
2023-05-20T11:43:23.392Z,23.30
2023-05-20T11:45:59.434Z,25.27
2023-05-20T11:48:27.038Z,23.65
2023-05-20T11:50:55.700Z,24.00
2023-05-20T11:53:24.268Z,31.42
2023-05-20T11:56:04.652Z,26.05
2023-05-20T11:58:32.196Z,24.63
2023-05-20T12:01:13.453Z,20.77
2023-05-20T12:03:55.223Z,22.55
2023-05-20T12:06:22.411Z,23.27
2023-05-20T12:09:08.807Z,24.90
2023-05-20T12:11:41.119Z,23.77
2023-05-20T12:14:08.969Z,23.85
2023-05-20T12:16:39.674Z,20.38
2023-05-20T12:19:09.524Z,23.40
2023-05-20T12:21:36.920Z,23.48
2023-05-20T12:24:12.355Z,23.25
2023-05-20T12:26:41.469Z,22.23
2023-05-20T12:29:11.929Z,20.83
2023-05-20T12:31:41.923Z,20.70
2023-05-20T12:36:41.012Z,22.35
2023-05-20T12:39:11.050Z,24.40
2023-05-20T12:41:42.237Z,22.88
2023-05-20T12:44:09.266Z,24.42
2023-05-20T12:46:37.938Z,26.48
2023-05-20T12:49:06.266Z,21.33
2023-05-20T12:51:33.685Z,25.27
2023-05-20T12:54:03.735Z,23.60
2023-05-20T12:56:31.886Z,22.30
2023-05-20T12:58:58.746Z,23.00
2023-05-20T13:01:26.915Z,25.17
2023-05-20T13:03:56.662Z,24.02
2023-05-20T13:06:23.922Z,24.92
2023-05-20T13:08:50.832Z,22.25
2023-05-20T13:11:17.739Z,27.38
2023-05-20T13:13:44.851Z,20.30
2023-05-20T13:16:11.996Z,24.52
2023-05-20T13:18:38.935Z,23.00
2023-05-20T13:21:05.890Z,24.77
2023-05-20T13:23:32.942Z,21.05
2023-05-20T13:25:59.817Z,25.10
2023-05-20T13:28:26.794Z,21.35
2023-05-20T13:30:54.000Z,24.45
2023-05-20T13:33:24.420Z,20.05
2023-05-20T13:35:51.721Z,22.80
2023-05-20T13:38:20.570Z,20.70
2023-05-20T13:40:47.408Z,22.30
2023-05-20T13:43:14.677Z,23.80
2023-05-20T13:45:42.157Z,24.80
2023-05-20T13:48:09.261Z,19.42
2023-05-20T13:50:36.395Z,19.13
2023-05-20T13:53:03.828Z,21.42
2023-05-20T13:55:31.562Z,21.77
2023-05-20T13:57:59.345Z,23.83
2023-05-20T14:00:26.406Z,19.27
2023-05-20T14:02:55.755Z,21.13
2023-05-20T14:05:23.247Z,17.50
2023-05-20T14:07:50.116Z,19.70
2023-05-20T14:10:17.073Z,22.30
2023-05-20T14:12:47.988Z,21.20
2023-05-20T14:15:15.116Z,17.33
2023-05-20T14:17:42.097Z,19.02
2023-05-20T14:20:09.381Z,20.00
2023-05-20T14:22:36.773Z,19.65
2023-05-20T14:25:04.038Z,20.50
2023-05-20T14:27:31.036Z,21.42
2023-05-20T14:29:58.248Z,19.15
2023-05-20T14:32:25.300Z,20.02
2023-05-20T14:34:53.872Z,21.20
2023-05-20T14:37:20.805Z,21.02
2023-05-20T14:39:50.308Z,22.98
2023-05-20T14:42:19.117Z,19.52
2023-05-20T14:44:49.594Z,19.92
2023-05-20T14:47:19.251Z,15.43
2023-05-20T14:49:50.470Z,18.70
2023-05-20T14:52:18.493Z,19.00
2023-05-20T14:54:45.857Z,19.38
2023-05-20T14:57:13.031Z,17.25
2023-05-20T14:59:39.801Z,16.95
2023-05-20T15:02:09.308Z,20.73
2023-05-20T15:04:38.268Z,21.08
2023-05-20T15:07:10.548Z,17.25
2023-05-20T15:09:38.645Z,19.17
2023-05-20T15:12:14.139Z,18.67
2023-05-20T15:14:42.597Z,17.88
2023-05-20T15:17:10.676Z,22.38
2023-05-20T15:19:41.251Z,18.90
2023-05-20T15:22:08.448Z,19.50
2023-05-20T15:24:35.436Z,22.70
2023-05-20T15:27:03.776Z,20.00
2023-05-20T15:29:30.536Z,21.45
2023-05-20T15:31:57.357Z,21.08
2023-05-20T15:34:24.075Z,21.60
2023-05-20T15:36:50.937Z,18.63
2023-05-20T15:39:17.757Z,19.55
2023-05-20T15:41:47.814Z,22.83
2023-05-20T15:44:14.555Z,19.65
2023-05-20T15:46:41.519Z,17.83
2023-05-20T15:49:08.290Z,19.55
2023-05-20T15:51:35.005Z,20.00
2023-05-20T15:54:01.795Z,19.08
2023-05-20T15:56:29.769Z,16.95
2023-05-20T15:58:56.787Z,21.08
2023-05-20T16:01:23.726Z,18.52
2023-05-20T16:03:50.594Z,21.23
2023-05-20T16:06:17.520Z,19.77
2023-05-20T16:08:44.474Z,17.67
2023-05-20T16:11:11.426Z,20.20
2023-05-20T16:13:38.234Z,19.35
2023-05-20T16:16:05.686Z,22.95
2023-05-20T16:18:32.546Z,20.13
2023-05-20T16:21:00.481Z,21.08
2023-05-20T16:23:27.395Z,23.23
2023-05-20T16:25:54.403Z,21.63
2023-05-20T16:28:21.433Z,21.42
2023-05-20T16:30:48.237Z,19.73
2023-05-20T16:33:15.024Z,18.85
2023-05-20T16:35:41.830Z,22.02
2023-05-20T16:38:09.839Z,20.58
2023-05-20T16:40:36.770Z,19.15
2023-05-20T16:43:03.653Z,21.40
2023-05-20T16:45:30.506Z,19.70
2023-05-20T16:47:57.329Z,16.10
2023-05-20T16:50:24.153Z,19.50
2023-05-20T16:52:54.436Z,18.15
2023-05-20T16:55:21.427Z,14.55
2023-05-20T16:57:51.133Z,16.45
2023-05-20T17:00:18.481Z,18.50
2023-05-20T17:02:46.446Z,15.27
2023-05-20T17:05:16.121Z,14.98
2023-05-20T17:07:45.105Z,16.50
2023-05-20T17:10:53.343Z,23.92
2023-05-20T17:13:25.143Z,17.27
2023-05-20T17:15:52.080Z,15.68
2023-05-20T17:18:34.911Z,22.52
2023-05-20T17:21:01.933Z,14.52
2023-05-20T17:23:28.896Z,20.67
2023-05-20T17:25:55.849Z,17.42
2023-05-20T17:28:22.932Z,17.50
2023-05-20T17:31:01.104Z,18.05
2023-05-20T17:33:27.983Z,17.30
2023-05-20T17:35:54.750Z,17.67
2023-05-20T17:38:22.277Z,20.17
2023-05-20T17:40:49.890Z,15.60
2023-05-20T17:43:16.625Z,21.15
2023-05-20T17:45:43.403Z,17.95
2023-05-20T17:48:11.856Z,20.10
2023-05-20T17:50:38.939Z,17.38
2023-05-20T17:53:06.137Z,22.83
2023-05-20T17:55:36.171Z,24.27
2023-05-20T18:00:30.489Z,25.75
2023-05-20T18:03:00.273Z,26.00
2023-05-20T18:05:27.841Z,22.60
2023-05-20T18:07:54.879Z,23.98
2023-05-20T18:10:21.804Z,21.80
2023-05-20T18:12:50.801Z,21.40
2023-05-20T18:15:18.746Z,21.40
2023-05-20T18:17:46.082Z,21.65
2023-05-20T18:20:13.863Z,22.27
2023-05-20T18:22:45.385Z,25.20
2023-05-20T18:25:15.753Z,29.08
2023-05-20T18:27:42.863Z,26.38
2023-05-20T18:30:10.400Z,21.92
2023-05-20T18:32:38.466Z,24.08
2023-05-20T18:35:05.690Z,25.15
2023-05-20T18:37:33.483Z,27.65
2023-05-20T18:40:00.450Z,22.73
2023-05-20T18:42:27.229Z,30.13
2023-05-20T18:44:54.507Z,26.20
2023-05-20T18:47:21.434Z,25.25
2023-05-20T18:49:48.313Z,24.63
2023-05-20T18:52:15.157Z,32.72
2023-05-20T18:54:42.505Z,35.80
2023-05-20T18:57:09.504Z,39.83
2023-05-20T18:59:37.018Z,36.28
2023-05-20T19:02:04.027Z,47.95
2023-05-20T19:04:31.035Z,46.92
2023-05-20T19:06:59.169Z,46.47
2023-05-20T19:09:25.974Z,46.72
2023-05-20T19:11:56.939Z,53.40
2023-05-20T19:14:23.856Z,54.03
2023-05-20T19:16:50.724Z,52.78
2023-05-20T19:19:17.631Z,48.17
2023-05-20T19:21:44.529Z,47.88
2023-05-20T19:24:11.468Z,42.80
2023-05-20T19:26:38.243Z,41.85
2023-05-20T19:29:06.912Z,40.10
2023-05-20T19:31:33.762Z,36.38
2023-05-20T19:34:00.538Z,33.95
2023-05-20T19:36:30.969Z,35.20
2023-05-20T19:38:58.337Z,36.58
2023-05-20T19:41:25.523Z,35.72
2023-05-20T19:43:52.209Z,33.40
2023-05-20T19:46:19.068Z,32.15
2023-05-20T19:48:45.954Z,35.13
2023-05-20T19:51:12.791Z,33.67
2023-05-20T19:53:39.520Z,32.67
2023-05-20T19:56:07.868Z,33.38
2023-05-20T19:58:34.812Z,30.17
2023-05-20T20:01:02.117Z,31.67
2023-05-20T20:03:28.944Z,32.03
2023-05-20T20:05:57.004Z,28.75
2023-05-20T20:08:23.976Z,30.15
2023-05-20T20:10:50.728Z,30.40
2023-05-20T20:13:17.413Z,30.67
2023-05-20T20:15:44.225Z,28.23
2023-05-20T20:18:11.145Z,30.08
2023-05-20T20:20:40.638Z,29.30
2023-05-20T20:23:08.065Z,30.02
2023-05-20T20:25:39.912Z,30.42
2023-05-20T20:28:07.735Z,34.08
2023-05-20T20:30:35.233Z,32.17
2023-05-20T20:33:06.133Z,29.83
2023-05-20T20:35:34.196Z,31.42
2023-05-20T20:38:01.445Z,32.15
2023-05-20T20:40:28.380Z,33.75
2023-05-20T20:42:58.285Z,32.03
2023-05-20T20:45:24.983Z,29.73
2023-05-20T20:47:54.750Z,32.10
2023-05-20T20:50:21.639Z,35.72
2023-05-20T20:52:48.649Z,29.65
2023-05-20T20:55:15.704Z,30.35
2023-05-20T20:57:42.414Z,35.97
2023-05-20T21:00:23.453Z,31.00
2023-05-20T21:02:50.470Z,29.73
2023-05-20T21:05:17.479Z,27.83
2023-05-20T21:07:46.962Z,26.63
2023-05-20T21:10:14.002Z,29.33
2023-05-20T21:12:40.705Z,30.98
2023-05-20T21:15:08.051Z,29.45
2023-05-20T21:17:34.971Z,30.25
2023-05-20T21:20:01.672Z,28.15
2023-05-20T21:22:28.449Z,26.92
2023-05-20T21:24:55.162Z,28.77
2023-05-20T21:27:21.874Z,28.83
2023-05-20T21:29:50.754Z,30.25
2023-05-20T21:32:17.576Z,27.83
2023-05-20T21:34:44.260Z,29.20
2023-05-20T21:37:11.033Z,27.83
2023-05-20T21:39:38.831Z,28.83
2023-05-20T21:42:06.766Z,28.70
2023-05-20T21:44:33.715Z,28.20
2023-05-20T21:47:00.454Z,28.92
2023-05-20T21:49:27.184Z,28.00
2023-05-20T21:51:53.917Z,28.88
2023-05-20T21:54:20.761Z,28.98
2023-05-20T21:56:47.504Z,27.45
2023-05-20T21:59:14.693Z,29.05
2023-05-20T22:01:41.633Z,29.73
2023-05-20T22:04:09.325Z,26.73
2023-05-20T22:06:36.226Z,27.70
2023-05-20T22:09:04.328Z,25.70
2023-05-20T22:11:31.250Z,29.30
2023-05-20T22:13:59.696Z,27.88
2023-05-20T22:16:26.540Z,32.08
2023-05-20T22:18:53.809Z,30.58
2023-05-20T22:21:21.507Z,31.92
2023-05-20T22:23:48.359Z,32.13
2023-05-20T22:26:15.162Z,30.67
2023-05-20T22:28:42.254Z,27.95
2023-05-20T22:31:09.192Z,27.70
2023-05-20T22:33:36.968Z,28.75
2023-05-20T22:36:04.155Z,30.08
2023-05-20T22:38:30.919Z,30.00
2023-05-20T22:40:57.653Z,30.60
2023-05-20T22:43:24.698Z,29.75
2023-05-20T22:46:00.375Z,28.35
2023-05-20T22:48:28.691Z,30.70
2023-05-20T22:51:03.950Z,29.02
2023-05-20T22:53:31.390Z,28.75
2023-05-20T22:55:59.998Z,27.13
2023-05-20T22:58:34.852Z,27.52
2023-05-20T23:01:02.049Z,28.65
2023-05-20T23:03:36.536Z,31.38
2023-05-20T23:06:04.441Z,26.45
2023-05-20T23:08:33.772Z,28.23
2023-05-20T23:11:05.947Z,28.67
2023-05-20T23:13:35.652Z,28.17
2023-05-20T23:16:10.333Z,31.60
2023-05-20T23:18:39.472Z,29.63
2023-05-20T23:21:06.533Z,28.17
2023-05-20T23:23:38.868Z,30.17
2023-05-20T23:26:05.821Z,28.35
2023-05-20T23:28:32.795Z,26.63
2023-05-20T23:30:59.716Z,27.58
2023-05-20T23:33:26.605Z,26.65
2023-05-20T23:35:56.277Z,29.95
2023-05-20T23:38:23.415Z,27.33
2023-05-20T23:40:53.525Z,27.90
2023-05-20T23:43:20.338Z,26.50
2023-05-20T23:45:47.283Z,29.17
2023-05-20T23:48:14.576Z,27.17
2023-05-20T23:50:41.583Z,27.33
2023-05-20T23:53:08.460Z,26.67
2023-05-20T23:55:35.596Z,27.95
2023-05-20T23:58:02.675Z,28.98
